地図

経路データ

SID SEASON NUMBER BASIN SUBBASIN NAME ISO_TIME NATURE LAT LON WMO_WIND WMO_PRES WMO_AGENCY TRACK_TYPE DIST2LAND LANDFALL IFLAG USA_AGENCY USA_ATCF_ID USA_LAT USA_LON USA_RECORD USA_STATUS USA_WIND USA_PRES USA_SSHS USA_R34_NE USA_R34_SE USA_R34_SW USA_R34_NW USA_R50_NE USA_R50_SE USA_R50_SW USA_R50_NW USA_R64_NE USA_R64_SE USA_R64_SW USA_R64_NW USA_POCI USA_ROCI USA_RMW USA_EYE TOKYO_LAT TOKYO_LON TOKYO_GRADE TOKYO_WIND TOKYO_PRES TOKYO_R50_DIR TOKYO_R50_LONG TOKYO_R50_SHORT TOKYO_R30_DIR TOKYO_R30_LONG TOKYO_R30_SHORT TOKYO_LAND CMA_LAT CMA_LON CMA_CAT CMA_WIND CMA_PRES HKO_LAT HKO_LON HKO_CAT HKO_WIND HKO_PRES NEWDELHI_LAT NEWDELHI_LON NEWDELHI_GRADE NEWDELHI_WIND NEWDELHI_PRES NEWDELHI_CI NEWDELHI_DP NEWDELHI_POCI REUNION_LAT REUNION_LON REUNION_TYPE REUNION_WIND REUNION_PRES REUNION_TNUM REUNION_CI REUNION_RMW REUNION_R34_NE REUNION_R34_SE REUNION_R34_SW REUNION_R34_NW REUNION_R50_NE REUNION_R50_SE REUNION_R50_SW REUNION_R50_NW REUNION_R64_NE REUNION_R64_SE REUNION_R64_SW REUNION_R64_NW BOM_LAT BOM_LON BOM_TYPE BOM_WIND BOM_PRES BOM_TNUM BOM_CI BOM_RMW BOM_R34_NE BOM_R34_SE BOM_R34_SW BOM_R34_NW BOM_R50_NE BOM_R50_SE BOM_R50_SW BOM_R50_NW BOM_R64_NE BOM_R64_SE BOM_R64_SW BOM_R64_NW BOM_ROCI BOM_POCI BOM_EYE BOM_POS_METHOD BOM_PRES_METHOD NADI_LAT NADI_LON NADI_CAT NADI_WIND NADI_PRES WELLINGTON_LAT WELLINGTON_LON WELLINGTON_WIND WELLINGTON_PRES DS824_LAT DS824_LON DS824_STAGE DS824_WIND DS824_PRES TD9636_LAT TD9636_LON TD9636_STAGE TD9636_WIND TD9636_PRES TD9635_LAT TD9635_LON TD9635_WIND TD9635_PRES TD9635_ROCI NEUMANN_LAT NEUMANN_LON NEUMANN_CLASS NEUMANN_WIND NEUMANN_PRES MLC_LAT MLC_LON MLC_CLASS MLC_WIND MLC_PRES USA_GUST BOM_GUST BOM_GUST_PER REUNION_GUST REUNION_GUST_PER USA_SEAHGT USA_SEARAD_NE USA_SEARAD_SE USA_SEARAD_SW USA_SEARAD_NW STORM_SPEED STORM_DIR
1922317N13128 1922 63 WP MM NOT_NAMED 1922-11-12 22:00:00 NR 12.9000 128.300 main 314 303 __________O___ -1 12.9000 128.300 2 2 254
1922317N13128 1922 63 WP MM NOT_NAMED 1922-11-13 00:00:00 NR 12.8815 128.231 main 303 293 __________P___ -1 12.8815 128.231 2 2 261
1922317N13128 1922 63 WP MM NOT_NAMED 1922-11-13 03:00:00 NR 12.8732 128.129 main 293 282 __________P___ -1 12.8732 128.129 2 2 280
1922317N13128 1922 63 WP MM NOT_NAMED 1922-11-13 06:00:00 NR 12.9149 128.028 main 282 275 __________P___ -1 12.9149 128.028 2 3 310
1922317N13128 1922 63 WP MM NOT_NAMED 1922-11-13 09:00:00 NR 13.0365 127.931 main 275 275 __________P___ -1 13.0365 127.931 2 3 326
1922317N13128 1922 63 WP MM NOT_NAMED 1922-11-13 10:00:00 NR 13.1000 127.900 main 279 273 __________O___ -1 13.1000 127.900 2 5 339
1922317N13128 1922 63 WP MM NOT_NAMED 1922-11-13 12:00:00 NR 13.2643 127.839 main 278 278 __________P___ -1 13.2643 127.839 2 6 343
1922317N13128 1922 63 WP MM NOT_NAMED 1922-11-13 15:00:00 NR 13.5805 127.747 main 285 285 __________P___ -1 13.5805 127.747 2 7 345
1922317N13128 1922 63 WP MM NOT_NAMED 1922-11-13 18:00:00 NR 13.9385 127.649 main 296 303 __________P___ -1 13.9385 127.649 2 7 344
1922317N13128 1922 63 WP MM NOT_NAMED 1922-11-13 21:00:00 NR 14.2915 127.540 main 319 319 __________P___ -1 14.2915 127.540 2 7 343
1922317N13128 1922 63 WP MM NOT_NAMED 1922-11-13 22:00:00 NR 14.4000 127.500 main 326 326 __________O___ -1 14.4000 127.500 2 6 336
1922317N13128 1922 63 WP MM NOT_NAMED 1922-11-14 00:00:00 NR 14.5807 127.406 main 332 325 __________P___ -1 14.5807 127.406 2 6 331
1922317N13128 1922 63 WP MM NOT_NAMED 1922-11-14 03:00:00 NR 14.8268 127.253 main 328 315 __________P___ -1 14.8268 127.253 2 6 327
1922317N13128 1922 63 WP MM NOT_NAMED 1922-11-14 06:00:00 NR 15.0455 127.095 main 315 306 __________P___ -1 15.0455 127.095 2 5 324
1922317N13128 1922 63 WP MM NOT_NAMED 1922-11-14 09:00:00 NR 15.2400 126.946 main 306 311 __________P___ -1 15.2400 126.946 2 5 324
1922317N13128 1922 63 WP MM NOT_NAMED 1922-11-14 10:00:00 NR 15.3000 126.900 main 311 308 __________O___ -1 15.3000 126.900 2 4 327
1922317N13128 1922 63 WP MM NOT_NAMED 1922-11-14 12:00:00 NR 15.4118 126.832 main 308 308 __________P___ -1 15.4118 126.832 2 4 330
1922317N13128 1922 63 WP MM NOT_NAMED 1922-11-14 15:00:00 NR 15.5605 126.743 main 312 312 __________P___ -1 15.5605 126.743 2 3 329
1922317N13128 1922 63 WP MM NOT_NAMED 1922-11-14 18:00:00 NR 15.7003 126.654 main 319 310 __________P___ -1 15.7003 126.654 2 3 326
1922317N13128 1922 63 WP MM NOT_NAMED 1922-11-14 21:00:00 NR 15.8469 126.544 main 310 317 __________P___ -1 15.8469 126.544 2 4 324
1922317N13128 1922 63 WP MM NOT_NAMED 1922-11-14 22:00:00 NR 15.9000 126.500 main 317 317 __________O___ -1 15.9000 126.500 2 5 317
1922317N13128 1922 63 WP MM NOT_NAMED 1922-11-15 00:00:00 NR 16.0168 126.377 main 317 310 __________P___ -1 16.0168 126.377 2 5 313
1922317N13128 1922 63 WP MM NOT_NAMED 1922-11-15 03:00:00 NR 16.2044 126.166 main 319 313 __________P___ -1 16.2044 126.166 2 6 314
1922317N13128 1922 63 WP MM NOT_NAMED 1922-11-15 06:00:00 NR 16.4069 125.949 main 318 318 __________P___ -1 16.4069 125.949 2 6 317
1922317N13128 1922 63 WP MM NOT_NAMED 1922-11-15 09:00:00 NR 16.6242 125.755 main 332 327 __________P___ -1 16.6242 125.755 2 6 321
1922317N13128 1922 63 WP MM NOT_NAMED 1922-11-15 10:00:00 NR 16.7000 125.700 main 337 330 __________O___ -1 16.7000 125.700 2 5 323
1922317N13128 1922 63 WP MM NOT_NAMED 1922-11-15 12:00:00 NR 16.8315 125.590 main 330 319 __________P___ -1 16.8315 125.590 2 5 326
1922317N13128 1922 63 WP MM NOT_NAMED 1922-11-15 15:00:00 NR 17.0410 125.456 main 319 308 __________P___ -1 17.0410 125.456 2 5 336
1922317N13128 1922 63 WP MM NOT_NAMED 1922-11-15 18:00:00 NR 17.2845 125.379 main 310 310 __________P___ -1 17.2845 125.379 2 6 352
1922317N13128 1922 63 WP MM NOT_NAMED 1922-11-15 21:00:00 NR 17.5840 125.379 main 315 315 __________P___ -1 17.5840 125.379 2 6 0
1922317N13128 1922 63 WP MM NOT_NAMED 1922-11-15 22:00:00 NR 17.7000 125.400 main 317 317 __________O___ -1 17.7000 125.400 2 8 13
1922317N13128 1922 63 WP MM NOT_NAMED 1922-11-16 00:00:00 NR 17.9889 125.470 main 337 337 __________P___ -1 17.9889 125.470 2 10 17
1922317N13128 1922 63 WP MM NOT_NAMED 1922-11-16 03:00:00 NR 18.4795 125.652 main 358 358 __________P___ -1 18.4795 125.652 2 11 22
1922317N13128 1922 63 WP MM NOT_NAMED 1922-11-16 06:00:00 NR 18.9889 125.902 main 385 385 __________P___ -1 18.9889 125.902 2 11 28
1922317N13128 1922 63 WP MM NOT_NAMED 1922-11-16 09:00:00 NR 19.4608 126.197 main 428 428 __________P___ -1 19.4608 126.197 2 11 32
1922317N13128 1922 63 WP MM NOT_NAMED 1922-11-16 10:00:00 NR 19.6000 126.300 main 441 441 __________O___ -1 19.6000 126.300 2 6 23
1922317N13128 1922 63 WP MM NOT_NAMED 1922-11-16 12:00:00 NR 19.7362 126.319 main 444 444 __________P___ -1 19.7362 126.319 2 3 14
1922317N13128 1922 63 WP MM NOT_NAMED 1922-11-16 15:00:00 NR 19.8823 126.368 main 462 462 __________P___ -1 19.8823 126.368 2 4 40
1922317N13128 1922 63 WP MM NOT_NAMED 1922-11-16 18:00:00 NR 20.0701 126.616 main 489 489 __________P___ -1 20.0701 126.616 2 10 57
1922317N13128 1922 63 WP MM NOT_NAMED 1922-11-16 21:00:00 NR 20.4241 127.261 main 570 574 __________P___ -1 20.4241 127.261 2 16 60
1922317N13128 1922 63 WP MM NOT_NAMED 1922-11-16 22:00:00 NR 20.6000 127.600 main 607 607 __________O___ -1 20.6000 127.600 2 27 62
1922317N13128 1922 63 WP MM NOT_NAMED 1922-11-17 00:00:00 NR 21.0675 128.553 main 725 725 __________P___ -1 21.0675 128.553 2 36 63
1922317N13128 1922 63 WP MM NOT_NAMED 1922-11-17 03:00:00 NR 21.9474 130.427 main 915 915 __________P___ -1 21.9474 130.427 2 43 63
1922317N13128 1922 63 WP MM NOT_NAMED 1922-11-17 06:00:00 NR 22.9820 132.668 main 915 876 __________P___ -1 22.9820 132.668 2 48 63
1922317N13128 1922 63 WP MM NOT_NAMED 1922-11-17 09:00:00 NR 24.1112 135.087 main 883 878 __________P___ -1 24.1112 135.087 2 50 63
1922317N13128 1922 63 WP MM NOT_NAMED 1922-11-17 10:00:00 NR 24.5000 135.900 main 887 882 __________O___ -1 24.5000 135.900 2 50 62
1922317N13128 1922 63 WP MM NOT_NAMED 1922-11-17 12:00:00 NR 25.2888 137.504 main 904 862 __________P___ -1 25.2888 137.504 2 49 61
1922317N13128 1922 63 WP MM NOT_NAMED 1922-11-17 15:00:00 NR 26.4921 139.873 main 864 832 __________P___ -1 26.4921 139.873 2 49 60
1922317N13128 1922 63 WP MM NOT_NAMED 1922-11-17 18:00:00 NR 27.7050 142.229 main 832 796 __________P___ -1 27.7050 142.229 2 48 60
1922317N13128 1922 63 WP MM NOT_NAMED 1922-11-17 21:00:00 NR 28.9065 144.601 main 802 798 __________P___ -1 28.9065 144.601 2 48 60
1922317N13128 1922 63 WP MM NOT_NAMED 1922-11-17 22:00:00 NR 29.3000 145.400 main 807 __________O___ -1 29.3000 145.400 7 48 61

デジタル台風データ・検索

IBTrACS Databaseについて

本データベースは、米国NOAAが公開する1842年以降の世界の熱帯低気圧のベストトラックデータアーカイブInternational Best Track Archive for Climate Stewardship (IBTrACS)を、ウェブで閲覧しやすい形式に変換したものです。

最終更新日:2021-12-03